createdAt,value
2022-12-25T00:01:35.712Z,18.38
2022-12-25T00:04:08.186Z,18.27
2022-12-25T00:06:41.656Z,17.52
2022-12-25T00:09:14.678Z,12.43
2022-12-25T00:11:46.974Z,11.65
2022-12-25T00:14:19.343Z,17.60
2022-12-25T00:16:51.846Z,16.15
2022-12-25T00:19:24.163Z,19.35
2022-12-25T00:21:56.506Z,17.00
2022-12-25T00:24:29.598Z,15.25
2022-12-25T00:27:01.901Z,15.25
2022-12-25T00:29:34.560Z,20.70
2022-12-25T00:32:06.969Z,18.85
2022-12-25T00:34:39.344Z,15.68
2022-12-25T00:37:11.655Z,17.92
2022-12-25T00:39:44.677Z,21.50
2022-12-25T00:42:19.934Z,14.18
2022-12-25T00:44:52.349Z,25.10
2022-12-25T00:47:24.673Z,16.90
2022-12-25T00:49:57.046Z,12.85
2022-12-25T00:52:29.381Z,11.90
2022-12-25T00:55:02.582Z,15.38
2022-12-25T00:57:35.084Z,19.52
2022-12-25T01:00:08.668Z,22.27
2022-12-25T01:02:41.109Z,28.38
2022-12-25T01:05:13.546Z,17.58
2022-12-25T01:07:45.881Z,18.08
2022-12-25T01:10:24.430Z,17.35
2022-12-25T01:12:56.877Z,23.95
2022-12-25T01:15:29.230Z,21.48
2022-12-25T01:18:07.626Z,18.40
2022-12-25T01:20:40.378Z,15.82
2022-12-25T01:23:13.031Z,22.20
2022-12-25T01:25:46.050Z,17.17
2022-12-25T01:28:18.401Z,14.98
2022-12-25T01:30:50.805Z,16.73
2022-12-25T01:33:23.179Z,10.40
2022-12-25T01:35:57.103Z,22.58
2022-12-25T01:38:29.461Z,21.85
2022-12-25T01:41:02.695Z,13.45
2022-12-25T01:43:35.040Z,12.27
2022-12-25T01:46:07.689Z,5.57
2022-12-25T01:48:40.110Z,15.63
2022-12-25T01:51:21.971Z,13.77
2022-12-25T01:53:57.559Z,11.38
2022-12-25T01:56:31.950Z,6.55
2022-12-25T01:59:05.618Z,12.10
2022-12-25T02:01:38.201Z,4.43
2022-12-25T02:04:19.572Z,3.30
2022-12-25T02:06:52.112Z,4.13
2022-12-25T02:09:24.433Z,2.78
2022-12-25T02:11:57.654Z,6.20
2022-12-25T02:14:34.413Z,11.30
2022-12-25T02:17:12.798Z,11.80
2022-12-25T02:20:08.690Z,6.18
2022-12-25T02:22:56.330Z,7.57
2022-12-25T02:25:39.413Z,7.45
2022-12-25T02:28:20.208Z,7.63
2022-12-25T02:30:56.980Z,5.65
2022-12-25T02:33:53.395Z,6.40
2022-12-25T02:36:33.044Z,8.18
2022-12-25T02:39:31.531Z,10.67
2022-12-25T02:42:08.542Z,11.02
2022-12-25T02:45:02.885Z,8.07
2022-12-25T02:47:55.109Z,4.25
2022-12-25T02:50:46.039Z,7.85
2022-12-25T02:53:36.555Z,5.78
2022-12-25T02:56:28.307Z,9.25
2022-12-25T02:59:19.813Z,9.40
2022-12-25T03:02:12.193Z,5.38
2022-12-25T03:05:02.833Z,6.20
2022-12-25T03:07:39.305Z,4.03
2022-12-25T03:10:32.960Z,7.63
2022-12-25T03:13:12.464Z,4.53
2022-12-25T03:16:03.843Z,3.45
2022-12-25T03:18:36.964Z,3.40
2022-12-25T03:21:28.022Z,6.35
2022-12-25T03:24:15.952Z,9.32
2022-12-25T03:26:54.559Z,6.60
2022-12-25T03:29:48.851Z,6.63
2022-12-25T03:32:33.552Z,9.00
2022-12-25T03:35:23.205Z,9.15
2022-12-25T03:41:19.928Z,11.77
2022-12-25T03:44:16.979Z,6.57
2022-12-25T03:47:17.781Z,6.55
2022-12-25T03:50:13.965Z,9.88
2022-12-25T03:53:06.860Z,15.13
2022-12-25T03:55:59.080Z,12.52
2022-12-25T03:58:49.519Z,7.30
2022-12-25T04:01:40.132Z,8.95
2022-12-25T04:04:30.464Z,17.05
2022-12-25T04:07:21.096Z,8.25
2022-12-25T04:10:12.482Z,20.13
2022-12-25T04:13:03.164Z,12.45
2022-12-25T04:15:53.756Z,7.65
2022-12-25T04:18:44.454Z,9.25
2022-12-25T04:21:35.279Z,5.57
2022-12-25T04:24:27.413Z,11.13
2022-12-25T04:27:18.996Z,13.60
2022-12-25T04:30:09.433Z,10.73
2022-12-25T04:33:00.092Z,4.97
2022-12-25T04:35:51.082Z,13.35
2022-12-25T04:38:23.904Z,13.40
2022-12-25T04:40:56.248Z,7.63
2022-12-25T04:43:29.497Z,7.50
2022-12-25T04:46:02.559Z,12.65
2022-12-25T04:48:36.197Z,14.02
2022-12-25T04:51:16.778Z,6.65
2022-12-25T04:53:50.103Z,13.55
2022-12-25T04:56:22.896Z,9.38
2022-12-25T04:58:55.941Z,16.92
2022-12-25T05:01:28.390Z,14.13
2022-12-25T05:04:00.884Z,19.42
2022-12-25T05:06:33.297Z,16.48
2022-12-25T05:09:05.804Z,23.63
2022-12-25T05:11:39.196Z,11.43
2022-12-25T05:14:12.196Z,11.85
2022-12-25T05:16:44.865Z,16.60
2022-12-25T05:19:17.222Z,9.23
2022-12-25T05:21:49.765Z,9.20
2022-12-25T05:24:26.085Z,11.93
2022-12-25T05:26:58.494Z,10.20
2022-12-25T05:29:31.527Z,7.22
2022-12-25T05:32:04.303Z,14.65
2022-12-25T05:34:36.655Z,8.13
2022-12-25T05:37:09.023Z,12.38
2022-12-25T05:39:41.687Z,11.98
2022-12-25T05:42:14.081Z,16.27
2022-12-25T05:44:47.080Z,17.45
2022-12-25T05:47:19.462Z,16.13
2022-12-25T05:49:51.807Z,18.70
2022-12-25T05:52:24.216Z,17.77
2022-12-25T05:54:56.511Z,17.20
2022-12-25T05:57:29.680Z,19.63
2022-12-25T06:00:03.348Z,8.70
2022-12-25T06:02:44.892Z,10.32
2022-12-25T06:05:17.445Z,23.27
2022-12-25T06:07:49.901Z,34.10
2022-12-25T06:10:22.657Z,30.60
2022-12-25T06:12:55.086Z,45.10
2022-12-25T06:15:28.041Z,38.30
2022-12-25T06:18:00.835Z,33.47
2022-12-25T06:20:33.487Z,17.85
2022-12-25T06:23:06.280Z,24.00
2022-12-25T06:25:39.259Z,19.55
2022-12-25T06:28:11.633Z,35.10
2022-12-25T06:30:44.652Z,32.17
2022-12-25T06:33:17.008Z,38.80
2022-12-25T06:35:49.337Z,45.45
2022-12-25T06:38:21.687Z,41.55
2022-12-25T06:40:53.998Z,30.10
2022-12-25T06:43:26.376Z,11.30
2022-12-25T06:46:03.228Z,9.55
2022-12-25T06:48:36.993Z,23.00
2022-12-25T06:51:09.297Z,31.30
2022-12-25T06:53:41.845Z,23.30
2022-12-25T06:56:15.960Z,36.83
2022-12-25T06:58:50.196Z,18.45
2022-12-25T07:01:26.516Z,18.92
2022-12-25T07:04:01.633Z,13.85
2022-12-25T07:06:34.365Z,14.95
2022-12-25T07:09:06.755Z,12.32
2022-12-25T07:11:39.098Z,36.35
2022-12-25T07:14:21.950Z,30.63
2022-12-25T07:16:57.041Z,28.33
2022-12-25T07:19:29.480Z,40.65
2022-12-25T07:22:01.816Z,26.13
2022-12-25T07:24:34.363Z,30.92
2022-12-25T07:27:07.549Z,39.83
2022-12-25T07:29:40.030Z,39.10
2022-12-25T07:32:13.109Z,28.40
2022-12-25T07:34:45.520Z,25.75
2022-12-25T07:37:17.881Z,11.68
2022-12-25T07:39:50.289Z,22.90
2022-12-25T07:42:31.065Z,21.20
2022-12-25T07:45:05.019Z,13.95
2022-12-25T07:47:38.006Z,33.05
2022-12-25T07:50:10.859Z,33.15
2022-12-25T07:52:43.926Z,15.68
2022-12-25T07:55:16.459Z,16.50
2022-12-25T07:57:48.885Z,21.25
2022-12-25T08:00:21.736Z,11.63
2022-12-25T08:02:54.915Z,14.30
2022-12-25T08:05:27.467Z,12.57
2022-12-25T08:07:59.778Z,14.30
2022-12-25T08:10:32.125Z,25.13
2022-12-25T08:13:09.052Z,30.48
2022-12-25T08:15:44.804Z,31.60
2022-12-25T08:18:17.779Z,6.88
2022-12-25T08:20:50.212Z,20.90
2022-12-25T08:23:22.593Z,9.00
2022-12-25T08:26:04.426Z,7.32
2022-12-25T08:28:37.676Z,3.47
2022-12-25T08:31:13.625Z,8.88
2022-12-25T08:33:47.119Z,15.75
2022-12-25T08:36:20.026Z,14.93
2022-12-25T08:38:56.964Z,14.52
2022-12-25T08:41:29.667Z,9.18
2022-12-25T08:44:02.231Z,2.47
2022-12-25T08:46:35.982Z,5.10
2022-12-25T08:49:09.048Z,4.90
2022-12-25T08:51:43.539Z,7.85
2022-12-25T08:54:15.849Z,3.22
2022-12-25T08:56:48.171Z,5.28
2022-12-25T08:59:20.613Z,2.75
2022-12-25T09:01:53.126Z,4.35
2022-12-25T09:04:26.390Z,3.47
2022-12-25T09:06:58.816Z,1.92
2022-12-25T09:09:31.118Z,2.35
2022-12-25T09:12:03.602Z,6.30
2022-12-25T09:14:36.199Z,3.47
2022-12-25T09:17:09.018Z,2.13
2022-12-25T09:19:41.963Z,2.03
2022-12-25T09:22:14.347Z,6.25
2022-12-25T09:24:46.627Z,14.27
2022-12-25T09:27:19.287Z,8.48
2022-12-25T09:29:51.560Z,5.80
2022-12-25T09:32:23.941Z,5.85
2022-12-25T09:34:57.052Z,6.05
2022-12-25T09:37:29.419Z,3.20
2022-12-25T09:40:01.963Z,6.63
2022-12-25T09:42:34.504Z,6.63
2022-12-25T09:45:12.760Z,3.15
2022-12-25T09:47:48.715Z,2.05
2022-12-25T09:50:27.953Z,3.90
2022-12-25T09:53:05.251Z,1.15
2022-12-25T09:55:45.179Z,2.70
2022-12-25T09:58:17.573Z,5.25
2022-12-25T10:01:01.755Z,2.40
2022-12-25T10:03:54.798Z,3.95
2022-12-25T10:06:36.698Z,3.10
2022-12-25T10:09:23.769Z,3.17
2022-12-25T10:12:14.052Z,6.22
2022-12-25T10:15:01.374Z,3.88
2022-12-25T10:17:44.517Z,3.22
2022-12-25T10:20:33.891Z,3.50
2022-12-25T10:23:13.692Z,4.00
2022-12-25T10:25:47.432Z,1.55
2022-12-25T10:28:26.271Z,2.83
2022-12-25T10:31:05.630Z,3.23
2022-12-25T10:33:37.950Z,3.67
2022-12-25T10:36:10.431Z,8.75
2022-12-25T10:38:43.602Z,3.22
2022-12-25T10:41:29.079Z,2.38
2022-12-25T10:44:12.699Z,2.22
2022-12-25T10:46:48.688Z,1.88
2022-12-25T10:49:24.479Z,3.72
2022-12-25T10:51:56.943Z,2.08
2022-12-25T10:54:31.662Z,2.67
2022-12-25T10:57:15.496Z,9.82
2022-12-25T10:59:50.164Z,6.95
2022-12-25T11:02:26.561Z,12.60
2022-12-25T11:05:02.314Z,4.15
2022-12-25T11:07:45.853Z,3.83
2022-12-25T11:10:22.647Z,3.78
2022-12-25T11:12:55.640Z,5.88
2022-12-25T11:15:35.436Z,6.57
2022-12-25T11:18:19.385Z,5.15
2022-12-25T11:20:53.898Z,3.67
2022-12-25T11:23:27.984Z,3.47
2022-12-25T11:26:03.900Z,2.05
2022-12-25T11:28:40.149Z,6.32
2022-12-25T11:31:14.597Z,9.13
2022-12-25T11:33:55.153Z,18.77
2022-12-25T11:36:32.411Z,8.73
2022-12-25T11:39:17.893Z,4.68
2022-12-25T11:41:55.490Z,1.58
2022-12-25T11:44:38.749Z,5.13
2022-12-25T11:47:18.658Z,3.72
2022-12-25T11:50:00.455Z,2.92
2022-12-25T11:52:36.549Z,3.35
2022-12-25T11:55:18.031Z,5.60
2022-12-25T11:57:55.698Z,2.40
2022-12-25T12:00:30.473Z,1.75
2022-12-25T12:03:12.414Z,3.75
2022-12-25T12:05:48.446Z,1.67
2022-12-25T12:08:20.754Z,2.80
2022-12-25T12:11:15.047Z,3.97
2022-12-25T12:14:00.380Z,1.48
2022-12-25T12:16:34.737Z,2.30
2022-12-25T12:19:12.260Z,9.02
2022-12-25T12:21:49.091Z,2.88
2022-12-25T12:24:23.754Z,1.75
2022-12-25T12:27:02.631Z,4.38
2022-12-25T12:29:40.252Z,2.08
2022-12-25T12:32:29.393Z,4.13
2022-12-25T12:35:09.059Z,2.15
2022-12-25T12:37:43.045Z,2.33
2022-12-25T12:40:29.833Z,0.47
2022-12-25T12:43:02.409Z,0.75
2022-12-25T12:45:37.511Z,3.45
2022-12-25T12:48:24.650Z,1.73
2022-12-25T12:51:05.636Z,1.55
2022-12-25T12:53:38.896Z,2.42
2022-12-25T12:56:16.921Z,7.55
2022-12-25T12:58:50.332Z,1.00
2022-12-25T13:01:44.635Z,2.25
2022-12-25T13:04:46.340Z,16.90
2022-12-25T13:07:44.270Z,2.72
2022-12-25T13:10:24.602Z,8.50
2022-12-25T13:13:00.306Z,0.90
2022-12-25T13:15:34.578Z,2.72
2022-12-25T13:18:12.050Z,2.13
2022-12-25T13:20:50.934Z,1.45
2022-12-25T13:23:28.674Z,4.13
2022-12-25T13:26:03.249Z,3.75
2022-12-25T13:28:36.365Z,0.70
2022-12-25T13:31:15.334Z,2.42
2022-12-25T13:33:54.923Z,2.73
2022-12-25T13:36:29.855Z,1.52
2022-12-25T13:39:02.837Z,3.13
2022-12-25T13:41:59.833Z,2.83
2022-12-25T13:44:42.457Z,1.55
2022-12-25T13:47:20.931Z,1.67
2022-12-25T13:49:55.432Z,2.30
2022-12-25T13:52:32.986Z,2.13
2022-12-25T13:55:12.900Z,1.30
2022-12-25T13:57:50.841Z,3.92
2022-12-25T14:00:29.401Z,3.70
2022-12-25T14:03:03.990Z,5.35
2022-12-25T14:05:42.890Z,7.47
2022-12-25T14:08:21.570Z,8.85
2022-12-25T14:10:55.315Z,1.83
2022-12-25T14:13:30.138Z,1.08
2022-12-25T14:16:03.120Z,4.78
2022-12-25T14:18:35.704Z,5.25
2022-12-25T14:21:15.145Z,2.38
2022-12-25T14:23:49.811Z,3.80
2022-12-25T14:26:25.047Z,9.25
2022-12-25T14:29:10.141Z,20.88
2022-12-25T14:31:48.161Z,16.98
2022-12-25T14:34:23.182Z,20.88
2022-12-25T14:36:56.897Z,21.85
2022-12-25T14:39:34.819Z,17.98
2022-12-25T14:42:19.963Z,17.15
2022-12-25T14:45:02.478Z,13.32
2022-12-25T14:47:50.525Z,17.33
2022-12-25T14:50:28.589Z,20.80
2022-12-25T14:53:01.921Z,15.15
2022-12-25T14:55:34.215Z,25.55
2022-12-25T14:58:07.480Z,26.42
2022-12-25T15:00:40.260Z,26.88
2022-12-25T15:03:24.104Z,24.58
2022-12-25T15:06:00.949Z,27.60
2022-12-25T15:08:34.870Z,23.50
2022-12-25T15:11:08.607Z,14.82
2022-12-25T15:13:40.951Z,15.23
2022-12-25T15:16:16.596Z,20.88
2022-12-25T15:18:49.931Z,22.80
2022-12-25T15:21:26.135Z,17.42
2022-12-25T15:24:00.077Z,24.85
2022-12-25T15:26:32.822Z,30.27
2022-12-25T15:29:06.664Z,36.58
2022-12-25T15:31:39.875Z,33.00
2022-12-25T15:34:16.939Z,29.33
2022-12-25T15:36:51.517Z,27.98
2022-12-25T15:39:24.482Z,39.95
2022-12-25T15:42:11.687Z,34.88
2022-12-25T15:44:44.803Z,29.60
2022-12-25T15:47:19.302Z,34.13
2022-12-25T15:49:51.607Z,30.20
2022-12-25T15:52:24.059Z,33.95
2022-12-25T15:54:57.057Z,27.08
2022-12-25T15:57:30.013Z,41.70
2022-12-25T16:00:03.039Z,57.47
2022-12-25T16:02:44.540Z,70.32
2022-12-25T16:05:17.180Z,55.13
2022-12-25T16:07:49.551Z,72.97
2022-12-25T16:10:22.536Z,53.05
2022-12-25T16:12:54.919Z,41.80
2022-12-25T16:15:27.232Z,45.58
2022-12-25T16:17:59.636Z,45.55
2022-12-25T16:20:32.278Z,52.15
2022-12-25T16:23:04.674Z,40.22
2022-12-25T16:25:37.680Z,59.70
2022-12-25T16:28:10.209Z,55.17
2022-12-25T16:30:42.858Z,65.57
2022-12-25T16:33:15.377Z,62.28
2022-12-25T16:35:48.904Z,73.10
2022-12-25T16:38:21.377Z,73.40
2022-12-25T16:40:56.930Z,79.18
2022-12-25T16:43:29.430Z,73.18
2022-12-25T16:46:08.322Z,55.50
2022-12-25T16:48:41.092Z,48.53
2022-12-25T16:51:15.558Z,42.35
2022-12-25T16:53:48.283Z,7.50
2022-12-25T16:56:24.656Z,24.88
2022-12-25T16:58:57.986Z,32.28
2022-12-25T17:01:30.557Z,81.68
2022-12-25T17:04:03.366Z,52.38
2022-12-25T17:06:36.329Z,51.00
2022-12-25T17:09:09.139Z,43.33
2022-12-25T17:11:42.153Z,53.17
2022-12-25T17:14:14.957Z,50.83
2022-12-25T17:16:47.315Z,51.63
2022-12-25T17:19:21.526Z,109.57
2022-12-25T17:21:54.266Z,67.93
2022-12-25T17:24:26.954Z,77.55
2022-12-25T17:26:59.921Z,80.88
2022-12-25T17:29:32.717Z,76.38
2022-12-25T17:32:05.723Z,78.70
2022-12-25T17:34:38.243Z,71.40
2022-12-25T17:37:10.771Z,71.35
2022-12-25T17:39:43.173Z,67.05
2022-12-25T17:42:16.165Z,75.43
2022-12-25T17:44:48.588Z,69.15
2022-12-25T17:47:20.908Z,95.03
2022-12-25T17:49:53.327Z,103.35
2022-12-25T17:52:25.613Z,86.70
2022-12-25T17:54:58.117Z,106.20
2022-12-25T17:57:31.114Z,64.05
2022-12-25T18:00:04.916Z,62.42
2022-12-25T18:02:39.302Z,72.40
2022-12-25T18:05:11.767Z,58.28
2022-12-25T18:07:44.243Z,60.05
2022-12-25T18:10:16.947Z,68.95
2022-12-25T18:12:49.972Z,63.97
2022-12-25T18:15:22.733Z,57.72
2022-12-25T18:17:55.810Z,50.45
2022-12-25T18:20:32.959Z,61.38
2022-12-25T18:23:10.137Z,60.78
2022-12-25T18:25:42.833Z,65.30
2022-12-25T18:28:16.012Z,93.15
2022-12-25T18:30:48.516Z,59.90
2022-12-25T18:33:20.865Z,62.78
2022-12-25T18:35:57.079Z,75.38
2022-12-25T18:38:29.639Z,80.05
2022-12-25T18:41:04.760Z,74.78
2022-12-25T18:43:53.664Z,84.93
2022-12-25T18:46:28.347Z,86.40
2022-12-25T18:49:00.855Z,61.13
2022-12-25T18:51:37.090Z,60.25
2022-12-25T18:54:09.710Z,65.30
2022-12-25T18:56:42.062Z,56.92
2022-12-25T18:59:15.701Z,75.72
2022-12-25T19:01:48.168Z,61.72
2022-12-25T19:04:20.770Z,76.75
2022-12-25T19:06:53.055Z,62.78
2022-12-25T19:09:25.429Z,81.57
2022-12-25T19:11:58.278Z,64.43
2022-12-25T19:14:32.523Z,55.72
2022-12-25T19:17:20.548Z,69.88
2022-12-25T19:19:52.879Z,47.25
2022-12-25T19:22:26.253Z,43.15
2022-12-25T19:24:58.620Z,44.53
2022-12-25T19:27:30.961Z,42.42
2022-12-25T19:30:05.077Z,39.85
2022-12-25T19:32:37.454Z,34.42
2022-12-25T19:35:09.868Z,35.30
2022-12-25T19:37:42.127Z,39.42
2022-12-25T19:40:14.746Z,45.20
2022-12-25T19:42:47.035Z,54.80
2022-12-25T19:45:20.885Z,44.15
2022-12-25T19:47:53.397Z,47.58
2022-12-25T19:50:27.952Z,33.78
2022-12-25T19:53:00.292Z,46.03
2022-12-25T19:55:32.858Z,64.15
2022-12-25T19:58:05.155Z,58.03
2022-12-25T20:00:39.633Z,41.95
2022-12-25T20:03:12.020Z,58.58
2022-12-25T20:05:44.559Z,53.28
2022-12-25T20:08:16.832Z,51.75
2022-12-25T20:10:49.497Z,38.85
2022-12-25T20:13:22.189Z,40.75
2022-12-25T20:16:00.947Z,44.08
2022-12-25T20:18:33.292Z,50.42
2022-12-25T20:21:08.946Z,42.78
2022-12-25T20:23:41.826Z,37.53
2022-12-25T20:26:15.551Z,28.92
2022-12-25T20:28:48.244Z,28.80
2022-12-25T20:31:23.357Z,42.00
2022-12-25T20:33:56.972Z,37.38
2022-12-25T20:36:34.674Z,60.00
2022-12-25T20:39:11.577Z,55.22
2022-12-25T20:41:44.441Z,51.17
2022-12-25T20:44:16.918Z,47.03
2022-12-25T20:46:49.965Z,35.72
2022-12-25T20:49:22.273Z,46.72
2022-12-25T20:51:57.394Z,42.42
2022-12-25T20:54:34.318Z,43.97
2022-12-25T20:57:07.935Z,47.05
2022-12-25T20:59:42.725Z,45.42
2022-12-25T21:02:33.999Z,65.35
2022-12-25T21:05:11.032Z,64.07
2022-12-25T21:07:43.332Z,31.65
2022-12-25T21:10:15.930Z,37.30
2022-12-25T21:12:48.359Z,36.95
2022-12-25T21:15:20.731Z,48.40
2022-12-25T21:17:53.802Z,44.35
2022-12-25T21:20:26.211Z,49.08
2022-12-25T21:22:58.605Z,37.22
2022-12-25T21:25:30.944Z,39.05
2022-12-25T21:28:03.328Z,91.15
2022-12-25T21:30:35.722Z,69.50
2022-12-25T21:33:29.226Z,90.95
2022-12-25T21:36:06.545Z,84.88
2022-12-25T21:38:39.138Z,71.20
2022-12-25T21:41:13.635Z,41.25
2022-12-25T21:43:46.230Z,33.03
2022-12-25T21:46:18.866Z,33.97
2022-12-25T21:48:52.379Z,40.38
2022-12-25T21:51:45.835Z,49.17
2022-12-25T21:54:19.850Z,40.15
2022-12-25T21:56:52.159Z,46.30
2022-12-25T21:59:24.629Z,55.95
2022-12-25T22:01:58.584Z,110.80
2022-12-25T22:04:31.662Z,87.95
2022-12-25T22:07:19.137Z,64.40
2022-12-25T22:09:51.649Z,65.90
2022-12-25T22:12:41.986Z,49.17
2022-12-25T22:15:14.268Z,37.05
2022-12-25T22:18:05.235Z,34.75
2022-12-25T22:20:38.469Z,24.55
2022-12-25T22:23:10.727Z,32.28
2022-12-25T22:25:43.079Z,24.58
2022-12-25T22:28:15.394Z,24.40
2022-12-25T22:30:47.807Z,20.13
2022-12-25T22:33:21.639Z,22.52
2022-12-25T22:36:01.769Z,23.13
2022-12-25T22:38:34.323Z,29.33
2022-12-25T22:41:07.083Z,27.55
2022-12-25T22:44:15.233Z,24.13
2022-12-25T22:46:32.075Z,27.92
2022-12-25T22:49:04.432Z,25.73
2022-12-25T22:51:37.514Z,25.73
2022-12-25T22:54:12.355Z,30.92
2022-12-25T22:56:46.364Z,26.05
2022-12-25T22:59:20.487Z,29.27
2022-12-25T23:01:53.126Z,30.35
2022-12-25T23:04:25.548Z,27.02
2022-12-25T23:06:58.669Z,28.23
2022-12-25T23:09:31.095Z,31.80
2022-12-25T23:12:04.044Z,24.80
2022-12-25T23:14:38.827Z,18.55
2022-12-25T23:17:27.430Z,17.95
2022-12-25T23:20:18.843Z,46.03
2022-12-25T23:23:10.328Z,40.75
2022-12-25T23:26:01.321Z,44.33
2022-12-25T23:28:52.194Z,53.97
2022-12-25T23:31:28.668Z,43.60
2022-12-25T23:34:01.409Z,43.17
2022-12-25T23:36:34.279Z,50.13
2022-12-25T23:39:10.480Z,58.85
2022-12-25T23:41:43.675Z,68.72
2022-12-25T23:44:16.293Z,55.20
2022-12-25T23:46:53.302Z,41.60
2022-12-25T23:49:26.939Z,65.82
2022-12-25T23:51:59.280Z,40.40
2022-12-25T23:54:33.443Z,30.75
2022-12-25T23:57:05.761Z,35.20
2022-12-25T23:59:38.232Z,35.97
